createdAt,value
2019-03-24T00:00:46.385Z,87.21
2019-03-24T00:03:16.261Z,87.64
2019-03-24T00:05:46.109Z,88.13
2019-03-24T00:08:15.781Z,88.29
2019-03-24T00:10:45.533Z,88.65
2019-03-24T00:13:15.270Z,88.88
2019-03-24T00:15:45.034Z,89.00
2019-03-24T00:18:15.142Z,88.87
2019-03-24T00:20:44.849Z,89.12
2019-03-24T00:23:14.717Z,89.31
2019-03-24T00:25:44.380Z,89.45
2019-03-24T00:28:14.359Z,89.72
2019-03-24T00:30:44.114Z,89.87
2019-03-24T00:33:13.723Z,90.04
2019-03-24T00:35:43.488Z,90.13
2019-03-24T00:38:13.357Z,90.35
2019-03-24T00:40:43.078Z,90.84
2019-03-24T00:43:12.717Z,91.43
2019-03-24T00:45:42.473Z,91.55
2019-03-24T00:48:12.100Z,91.32
2019-03-24T00:50:42.139Z,91.48
2019-03-24T00:53:14.116Z,91.69
2019-03-24T00:55:43.703Z,92.09
2019-03-24T00:58:14.617Z,92.29
2019-03-24T01:00:45.777Z,92.40
2019-03-24T01:03:15.955Z,92.57
2019-03-24T01:05:46.353Z,92.83
2019-03-24T01:08:16.117Z,93.07
2019-03-24T01:10:45.693Z,92.82
2019-03-24T01:13:15.900Z,92.71
2019-03-24T01:15:48.086Z,92.54
2019-03-24T01:18:17.516Z,92.68
2019-03-24T01:20:47.153Z,93.18
2019-03-24T01:23:16.753Z,93.12
2019-03-24T01:25:46.640Z,92.86
2019-03-24T01:28:16.241Z,92.48
2019-03-24T01:30:45.975Z,92.31
2019-03-24T01:33:15.809Z,92.17
2019-03-24T01:35:45.462Z,92.35
2019-03-24T01:38:15.078Z,92.50
2019-03-24T01:40:44.840Z,92.71
2019-03-24T01:43:14.409Z,92.86
2019-03-24T01:45:44.215Z,92.71
2019-03-24T01:48:13.796Z,92.62
2019-03-24T01:50:43.817Z,93.33
2019-03-24T01:53:13.411Z,93.39
2019-03-24T01:55:43.216Z,93.42
2019-03-24T01:58:12.839Z,93.57
2019-03-24T02:00:42.574Z,93.41
2019-03-24T02:03:12.147Z,93.00
2019-03-24T02:05:41.848Z,93.20
2019-03-24T02:08:12.096Z,93.36
2019-03-24T02:10:42.326Z,93.62
2019-03-24T02:13:11.944Z,93.53
2019-03-24T02:15:41.758Z,93.52
2019-03-24T02:18:11.448Z,93.65
2019-03-24T02:20:41.259Z,93.62
2019-03-24T02:23:10.875Z,93.53
2019-03-24T02:25:40.929Z,93.55
2019-03-24T02:28:10.774Z,93.74
2019-03-24T02:30:40.369Z,94.03
2019-03-24T02:33:10.264Z,94.20
2019-03-24T02:35:39.983Z,94.39
2019-03-24T02:38:09.861Z,94.10
2019-03-24T02:40:39.829Z,93.79
2019-03-24T02:43:09.941Z,93.56
2019-03-24T02:45:40.017Z,93.79
2019-03-24T02:48:09.832Z,93.46
2019-03-24T02:50:39.785Z,93.80
2019-03-24T02:53:09.397Z,93.92
2019-03-24T02:55:39.122Z,94.17
2019-03-24T02:58:08.792Z,94.17
2019-03-24T03:00:38.792Z,94.87
2019-03-24T03:03:08.640Z,95.75
2019-03-24T03:05:38.197Z,95.75
2019-03-24T03:08:08.069Z,95.86
2019-03-24T03:10:37.845Z,95.45
2019-03-24T03:13:07.497Z,95.66
2019-03-24T03:15:37.082Z,95.66
2019-03-24T03:18:06.752Z,96.36
2019-03-24T03:20:36.455Z,96.36
2019-03-24T03:23:06.394Z,96.27
2019-03-24T03:25:36.015Z,96.27
2019-03-24T03:28:05.867Z,96.01
2019-03-24T03:30:35.436Z,96.40
2019-03-24T03:33:05.225Z,96.40
2019-03-24T03:35:34.762Z,96.67
2019-03-24T03:38:04.562Z,96.54
2019-03-24T03:40:34.326Z,97.01
2019-03-24T03:43:03.946Z,97.01
2019-03-24T03:45:33.677Z,97.10
2019-03-24T03:48:03.493Z,96.66
2019-03-24T03:50:33.057Z,96.66
2019-03-24T03:53:02.726Z,97.47
2019-03-24T03:55:32.313Z,97.65
2019-03-24T03:58:02.142Z,97.35
2019-03-24T04:00:35.848Z,97.87
2019-03-24T04:03:06.177Z,97.87
2019-03-24T04:05:35.739Z,98.13
2019-03-24T04:08:06.920Z,98.21
2019-03-24T04:10:36.514Z,98.21
2019-03-24T04:13:06.206Z,98.06
2019-03-24T04:15:36.510Z,98.29
2019-03-24T04:18:06.232Z,98.50
2019-03-24T04:20:36.903Z,98.04
2019-03-24T04:23:06.909Z,98.04
2019-03-24T04:25:36.645Z,98.65
2019-03-24T04:28:06.497Z,99.20
2019-03-24T04:30:36.656Z,99.20
2019-03-24T04:33:06.462Z,99.03
2019-03-24T04:35:36.093Z,99.02
2019-03-24T04:38:05.931Z,99.07
2019-03-24T04:40:35.670Z,99.07
2019-03-24T04:43:05.234Z,99.17
2019-03-24T04:45:35.260Z,99.43
2019-03-24T04:48:05.102Z,99.29
2019-03-24T04:50:34.697Z,98.90
2019-03-24T04:53:04.624Z,98.42
2019-03-24T04:55:34.812Z,99.22
2019-03-24T04:58:04.534Z,99.38
2019-03-24T05:00:39.009Z,99.16
2019-03-24T05:03:08.551Z,99.31
2019-03-24T05:05:38.768Z,98.95
2019-03-24T05:08:08.554Z,99.52
2019-03-24T05:10:39.003Z,99.66
2019-03-24T05:13:08.592Z,99.13
2019-03-24T05:15:38.365Z,99.45
2019-03-24T05:18:08.156Z,98.89
2019-03-24T05:20:37.740Z,98.89
2019-03-24T05:23:07.412Z,99.04
2019-03-24T05:25:37.261Z,99.16
2019-03-24T05:28:06.856Z,98.74
2019-03-24T05:30:36.591Z,98.72
2019-03-24T05:33:06.419Z,98.82
2019-03-24T05:35:36.146Z,98.74
2019-03-24T05:38:05.825Z,98.74
2019-03-24T05:40:35.423Z,98.95
2019-03-24T05:43:05.138Z,98.26
2019-03-24T05:45:34.757Z,97.74
2019-03-24T05:48:04.644Z,97.74
2019-03-24T05:50:34.706Z,97.75
2019-03-24T05:53:04.546Z,97.38
2019-03-24T05:55:34.157Z,96.85
2019-03-24T05:58:03.933Z,96.85
2019-03-24T06:00:33.517Z,97.34
2019-03-24T06:03:03.249Z,97.15
2019-03-24T06:05:32.813Z,97.20
2019-03-24T06:08:02.655Z,97.18
2019-03-24T06:10:32.469Z,97.18
2019-03-24T06:13:02.224Z,96.57
2019-03-24T06:15:31.839Z,96.17
2019-03-24T06:18:01.603Z,96.20
2019-03-24T06:20:31.416Z,96.20
2019-03-24T06:23:01.173Z,95.83
2019-03-24T06:25:30.766Z,96.31
2019-03-24T06:28:00.479Z,96.31
2019-03-24T06:30:30.103Z,94.87
2019-03-24T06:32:59.920Z,94.87
2019-03-24T06:35:29.814Z,94.58
2019-03-24T06:37:59.562Z,94.08
2019-03-24T06:40:29.407Z,94.57
2019-03-24T06:42:59.190Z,94.57
2019-03-24T06:45:29.136Z,93.91
2019-03-24T06:47:58.777Z,93.55
2019-03-24T06:50:28.485Z,92.66
2019-03-24T06:52:58.049Z,92.79
2019-03-24T06:55:28.247Z,92.79
2019-03-24T06:57:58.062Z,92.10
2019-03-24T07:00:27.655Z,91.06
2019-03-24T07:02:57.575Z,90.20
2019-03-24T07:05:27.455Z,89.84
2019-03-24T07:07:57.633Z,89.02
2019-03-24T07:10:27.284Z,89.00
2019-03-24T07:12:57.075Z,88.17
2019-03-24T07:15:26.879Z,88.53
2019-03-24T07:17:56.666Z,87.55
2019-03-24T07:20:26.225Z,86.97
2019-03-24T07:22:55.850Z,86.63
2019-03-24T07:25:25.497Z,86.07
2019-03-24T07:27:55.392Z,85.58
2019-03-24T07:30:25.127Z,85.36
2019-03-24T07:32:54.969Z,84.46
2019-03-24T07:35:24.592Z,83.89
2019-03-24T07:37:54.226Z,83.68
2019-03-24T07:40:23.837Z,83.39
2019-03-24T07:42:53.560Z,83.23
2019-03-24T07:45:23.733Z,81.95
2019-03-24T07:47:54.085Z,81.61
2019-03-24T07:50:23.767Z,81.19
2019-03-24T07:52:53.388Z,80.66
2019-03-24T07:55:23.246Z,80.45
2019-03-24T07:57:52.950Z,80.07
2019-03-24T08:00:34.895Z,79.17
2019-03-24T08:03:04.510Z,78.96
2019-03-24T08:05:35.348Z,78.24
2019-03-24T08:08:05.299Z,78.04
2019-03-24T08:10:35.081Z,78.12
2019-03-24T08:13:04.871Z,77.61
2019-03-24T08:15:34.485Z,76.53
2019-03-24T08:18:04.109Z,77.22
2019-03-24T08:20:33.727Z,75.91
2019-03-24T08:23:03.532Z,76.14
2019-03-24T08:25:33.788Z,75.46
2019-03-24T08:28:03.964Z,74.70
2019-03-24T08:30:35.546Z,74.46
2019-03-24T08:33:05.557Z,73.27
2019-03-24T08:35:35.157Z,74.19
2019-03-24T08:38:05.076Z,73.71
2019-03-24T08:40:34.707Z,72.38
2019-03-24T08:43:04.615Z,71.60
2019-03-24T08:45:34.480Z,70.69
2019-03-24T08:48:04.135Z,69.61
2019-03-24T08:50:34.110Z,69.78
2019-03-24T08:53:03.958Z,69.59
2019-03-24T08:55:34.188Z,69.36
2019-03-24T08:58:03.752Z,69.43
2019-03-24T09:00:33.593Z,69.09
2019-03-24T09:03:03.775Z,68.29
2019-03-24T09:05:33.861Z,69.42
2019-03-24T09:08:04.287Z,68.73
2019-03-24T09:10:34.053Z,69.33
2019-03-24T09:13:04.045Z,69.07
2019-03-24T09:15:33.804Z,68.75
2019-03-24T09:18:03.611Z,68.38
2019-03-24T09:20:41.224Z,68.63
2019-03-24T09:23:04.869Z,67.72
2019-03-24T09:25:34.759Z,67.56
2019-03-24T09:28:04.918Z,67.48
2019-03-24T09:30:37.223Z,67.97
2019-03-24T09:33:07.223Z,66.62
2019-03-24T09:35:36.999Z,67.18
2019-03-24T09:38:06.848Z,66.89
2019-03-24T09:40:36.904Z,66.66
2019-03-24T09:43:07.184Z,66.40
2019-03-24T09:45:37.298Z,65.11
2019-03-24T09:48:07.687Z,65.88
2019-03-24T09:50:37.660Z,66.48
2019-03-24T09:53:07.326Z,65.65
2019-03-24T09:55:37.203Z,65.93
2019-03-24T09:58:06.956Z,64.84
2019-03-24T10:00:36.892Z,65.43
2019-03-24T10:03:06.888Z,64.64
2019-03-24T10:05:36.503Z,64.60
2019-03-24T10:08:06.350Z,63.65
2019-03-24T10:10:36.231Z,62.98
2019-03-24T10:13:06.424Z,61.95
2019-03-24T10:15:36.263Z,61.08
2019-03-24T10:18:06.073Z,63.27
2019-03-24T10:20:36.166Z,62.26
2019-03-24T10:23:05.774Z,62.86
2019-03-24T10:25:35.519Z,61.49
2019-03-24T10:28:05.130Z,60.75
2019-03-24T10:30:35.165Z,61.19
2019-03-24T10:33:04.789Z,60.45
2019-03-24T10:35:34.605Z,60.38
2019-03-24T10:38:04.422Z,59.78
2019-03-24T10:40:34.631Z,60.17
2019-03-24T10:43:04.299Z,59.34
2019-03-24T10:45:34.157Z,59.11
2019-03-24T10:48:03.974Z,58.53
2019-03-24T10:50:33.707Z,58.86
2019-03-24T10:53:03.777Z,57.38
2019-03-24T10:55:33.531Z,57.27
2019-03-24T10:58:03.265Z,56.97
2019-03-24T11:00:43.143Z,55.81
2019-03-24T11:03:12.805Z,57.12
2019-03-24T11:05:42.828Z,56.70
2019-03-24T11:08:13.764Z,55.40
2019-03-24T11:10:43.468Z,54.74
2019-03-24T11:13:13.228Z,56.48
2019-03-24T11:15:42.954Z,54.94
2019-03-24T11:18:12.783Z,55.68
2019-03-24T11:20:42.771Z,54.87
2019-03-24T11:23:12.489Z,55.34
2019-03-24T11:25:42.421Z,54.45
2019-03-24T11:28:12.236Z,55.54
2019-03-24T11:30:42.042Z,54.20
2019-03-24T11:33:11.843Z,53.64
2019-03-24T11:35:41.511Z,53.97
2019-03-24T11:38:11.460Z,54.88
2019-03-24T11:40:41.504Z,53.78
2019-03-24T11:43:11.136Z,53.86
2019-03-24T11:45:41.383Z,54.63
2019-03-24T11:48:11.309Z,53.44
2019-03-24T11:50:41.227Z,53.83
2019-03-24T11:53:11.085Z,55.41
2019-03-24T11:55:41.007Z,53.40
2019-03-24T11:58:10.967Z,54.39
2019-03-24T12:00:41.016Z,53.43
2019-03-24T12:03:11.499Z,53.33
2019-03-24T12:05:41.391Z,53.11
2019-03-24T12:08:11.013Z,53.55
2019-03-24T12:10:40.819Z,53.37
2019-03-24T12:13:10.618Z,53.39
2019-03-24T12:15:40.567Z,52.71
2019-03-24T12:18:10.211Z,54.26
2019-03-24T12:20:39.868Z,54.17
2019-03-24T12:23:09.483Z,54.21
2019-03-24T12:25:39.389Z,53.34
2019-03-24T12:28:09.166Z,52.33
2019-03-24T12:30:38.831Z,52.52
2019-03-24T12:33:08.732Z,52.92
2019-03-24T12:35:38.801Z,53.07
2019-03-24T12:38:08.649Z,54.16
2019-03-24T12:40:38.411Z,53.23
2019-03-24T12:43:18.699Z,53.23
2019-03-24T12:45:39.691Z,54.46
2019-03-24T12:48:09.475Z,52.70
2019-03-24T12:50:39.474Z,53.13
2019-03-24T12:53:09.263Z,54.06
2019-03-24T12:55:38.882Z,53.21
2019-03-24T12:58:08.699Z,52.65
2019-03-24T13:00:40.167Z,52.53
2019-03-24T13:03:10.271Z,54.28
2019-03-24T13:05:40.075Z,54.00
2019-03-24T13:08:17.259Z,53.63
2019-03-24T13:10:47.683Z,52.60
2019-03-24T13:13:17.305Z,54.02
2019-03-24T13:15:47.342Z,52.21
2019-03-24T13:18:17.012Z,52.66
2019-03-24T13:20:47.204Z,53.23
2019-03-24T13:23:17.404Z,53.08
2019-03-24T13:25:47.177Z,53.80
2019-03-24T13:28:16.904Z,52.83
2019-03-24T13:30:47.228Z,54.31
2019-03-24T13:33:16.879Z,54.56
2019-03-24T13:35:48.322Z,54.02
2019-03-24T13:38:17.969Z,53.44
2019-03-24T13:40:47.631Z,53.90
2019-03-24T13:43:17.446Z,53.86
2019-03-24T13:45:47.308Z,54.77
2019-03-24T13:48:17.142Z,55.48
2019-03-24T13:50:46.831Z,55.29
2019-03-24T13:53:16.593Z,55.90
2019-03-24T13:55:46.298Z,56.39
2019-03-24T13:58:15.884Z,56.37
2019-03-24T14:00:45.558Z,57.22
2019-03-24T14:03:15.223Z,57.75
2019-03-24T14:05:44.879Z,57.61
2019-03-24T14:08:14.738Z,57.24
2019-03-24T14:10:44.531Z,58.75
2019-03-24T14:13:14.187Z,58.07
2019-03-24T14:15:43.919Z,58.51
2019-03-24T14:18:13.521Z,58.81
2019-03-24T14:20:44.076Z,59.38
2019-03-24T14:23:14.038Z,58.84
2019-03-24T14:25:44.036Z,59.34
2019-03-24T14:28:13.853Z,59.51
2019-03-24T14:30:46.336Z,59.38
2019-03-24T14:33:16.366Z,60.20
2019-03-24T14:35:46.104Z,60.10
2019-03-24T14:38:15.839Z,58.93
2019-03-24T14:40:45.854Z,59.09
2019-03-24T14:43:15.613Z,59.52
2019-03-24T14:45:45.432Z,59.87
2019-03-24T14:48:15.014Z,60.30
2019-03-24T14:50:54.053Z,60.10
2019-03-24T14:53:16.163Z,59.84
2019-03-24T14:55:46.110Z,58.79
2019-03-24T14:58:15.728Z,58.99
2019-03-24T15:00:45.813Z,59.45
2019-03-24T15:03:15.608Z,58.88
2019-03-24T15:05:45.440Z,58.67
2019-03-24T15:08:15.227Z,58.34
2019-03-24T15:10:45.148Z,59.24
2019-03-24T15:13:15.455Z,59.23
2019-03-24T15:15:45.199Z,58.55
2019-03-24T15:18:14.987Z,59.02
2019-03-24T15:20:44.642Z,59.17
2019-03-24T15:23:14.310Z,59.96
2019-03-24T15:25:43.951Z,60.03
2019-03-24T15:28:13.653Z,60.00
2019-03-24T15:30:43.500Z,59.78
2019-03-24T15:33:13.259Z,60.00
2019-03-24T15:35:43.098Z,60.05
2019-03-24T15:38:13.117Z,58.89
2019-03-24T15:40:42.752Z,59.26
2019-03-24T15:43:12.393Z,59.75
2019-03-24T15:45:42.120Z,59.27
2019-03-24T15:48:11.780Z,59.91
2019-03-24T15:50:41.554Z,60.20
2019-03-24T15:53:11.689Z,60.30
2019-03-24T15:55:41.529Z,60.67
2019-03-24T15:58:11.279Z,60.93
2019-03-24T16:00:46.154Z,61.56
2019-03-24T16:03:15.804Z,61.80
2019-03-24T16:05:45.637Z,62.15
2019-03-24T16:08:15.814Z,62.36
2019-03-24T16:10:46.136Z,62.31
2019-03-24T16:13:16.155Z,62.61
2019-03-24T16:15:45.973Z,62.58
2019-03-24T16:18:15.781Z,63.06
2019-03-24T16:20:46.153Z,60.96
2019-03-24T16:23:16.088Z,60.86
2019-03-24T16:25:46.229Z,61.23
2019-03-24T16:28:15.875Z,61.63
2019-03-24T16:30:45.700Z,61.77
2019-03-24T16:33:15.897Z,62.01
2019-03-24T16:35:46.066Z,61.65
2019-03-24T16:38:15.843Z,61.42
2019-03-24T16:40:45.813Z,60.49
2019-03-24T16:43:15.576Z,60.22
2019-03-24T16:45:47.282Z,60.45
2019-03-24T16:48:17.149Z,61.09
2019-03-24T16:50:47.330Z,61.17
2019-03-24T16:53:17.161Z,61.20
2019-03-24T16:55:46.867Z,61.23
2019-03-24T16:58:16.494Z,61.58
2019-03-24T17:00:46.443Z,62.16
2019-03-24T17:03:16.290Z,62.46
2019-03-24T17:05:46.514Z,62.96
2019-03-24T17:08:16.335Z,62.99
2019-03-24T17:10:46.361Z,62.09
2019-03-24T17:13:16.432Z,61.82
2019-03-24T17:15:46.117Z,63.26
2019-03-24T17:18:15.979Z,61.79
2019-03-24T17:20:46.056Z,61.98
2019-03-24T17:23:15.905Z,62.38
2019-03-24T17:25:45.743Z,63.43
2019-03-24T17:28:15.452Z,63.33
2019-03-24T17:30:45.107Z,64.06
2019-03-24T17:33:15.075Z,63.43
2019-03-24T17:35:45.175Z,63.05
2019-03-24T17:38:14.919Z,62.36
2019-03-24T17:40:44.845Z,61.66
2019-03-24T17:43:14.941Z,62.26
2019-03-24T17:45:45.362Z,62.01
2019-03-24T17:48:15.077Z,62.84
2019-03-24T17:50:44.867Z,62.37
2019-03-24T17:53:14.781Z,63.19
2019-03-24T17:55:44.620Z,63.53
2019-03-24T17:58:14.886Z,62.78
2019-03-24T18:00:47.528Z,62.46
2019-03-24T18:03:17.337Z,62.96
2019-03-24T18:05:47.009Z,62.09
2019-03-24T18:08:17.071Z,62.30
2019-03-24T18:10:46.771Z,61.40
2019-03-24T18:13:17.029Z,61.10
2019-03-24T18:15:47.194Z,61.03
2019-03-24T18:18:16.951Z,61.91
2019-03-24T18:20:46.809Z,62.04
2019-03-24T18:23:16.848Z,61.07
2019-03-24T18:25:46.856Z,60.67
2019-03-24T18:28:16.687Z,60.59
2019-03-24T18:30:47.551Z,60.21
2019-03-24T18:33:17.136Z,60.06
2019-03-24T18:35:47.072Z,59.96
2019-03-24T18:38:16.944Z,59.00
2019-03-24T18:40:46.641Z,59.07
2019-03-24T18:43:16.687Z,59.62
2019-03-24T18:45:46.623Z,60.00
2019-03-24T18:48:16.622Z,60.02
2019-03-24T18:50:46.925Z,60.56
2019-03-24T18:53:17.063Z,60.79
2019-03-24T18:55:46.867Z,61.03
2019-03-24T18:58:16.604Z,61.40
2019-03-24T19:00:46.414Z,61.48
2019-03-24T19:03:16.183Z,61.98
2019-03-24T19:05:45.848Z,62.23
2019-03-24T19:08:15.623Z,61.81
2019-03-24T19:10:45.288Z,62.02
2019-03-24T19:13:15.074Z,62.45
2019-03-24T19:15:45.072Z,62.69
2019-03-24T19:18:15.129Z,62.92
2019-03-24T19:20:44.863Z,63.00
2019-03-24T19:23:14.647Z,63.80
2019-03-24T19:25:44.426Z,64.38
2019-03-24T19:28:14.202Z,64.66
2019-03-24T19:30:43.986Z,65.21
2019-03-24T19:33:13.768Z,65.51
2019-03-24T19:35:43.423Z,65.46
2019-03-24T19:38:13.226Z,66.14
2019-03-24T19:40:43.091Z,66.59
2019-03-24T19:43:13.221Z,67.26
2019-03-24T19:45:43.041Z,67.75
2019-03-24T19:48:13.067Z,68.04
2019-03-24T19:50:43.448Z,68.55
2019-03-24T19:53:13.520Z,68.90
2019-03-24T19:55:43.389Z,68.83
2019-03-24T19:58:14.690Z,68.85
2019-03-24T20:00:44.988Z,69.36
2019-03-24T20:03:14.857Z,69.09
2019-03-24T20:05:45.036Z,69.56
2019-03-24T20:08:15.286Z,70.18
2019-03-24T20:10:45.870Z,70.80
2019-03-24T20:13:15.865Z,70.55
2019-03-24T20:15:45.995Z,71.14
2019-03-24T20:18:15.734Z,71.44
2019-03-24T20:20:45.719Z,71.92
2019-03-24T20:23:15.959Z,72.57
2019-03-24T20:25:46.243Z,72.68
2019-03-24T20:28:15.977Z,73.14
2019-03-24T20:30:45.660Z,73.62
2019-03-24T20:33:15.741Z,73.78
2019-03-24T20:35:45.442Z,73.54
2019-03-24T20:38:15.316Z,73.33
2019-03-24T20:40:45.260Z,72.73
2019-03-24T20:43:15.532Z,72.51
2019-03-24T20:45:45.411Z,73.06
2019-03-24T20:48:15.177Z,72.69
2019-03-24T20:50:45.173Z,72.94
2019-03-24T20:53:18.386Z,72.45
2019-03-24T20:55:47.038Z,71.29
2019-03-24T20:58:17.183Z,70.81
2019-03-24T21:00:47.382Z,69.98
2019-03-24T21:03:18.917Z,69.31
2019-03-24T21:05:48.591Z,68.87
2019-03-24T21:08:18.274Z,69.35
2019-03-24T21:10:49.293Z,68.86
2019-03-24T21:13:19.961Z,68.80
2019-03-24T21:15:50.063Z,68.67
2019-03-24T21:18:19.761Z,67.89
2019-03-24T21:20:49.602Z,67.93
2019-03-24T21:23:29.062Z,68.17
2019-03-24T21:25:51.382Z,68.32
2019-03-24T21:28:21.457Z,68.77
2019-03-24T21:30:51.585Z,69.03
2019-03-24T21:33:21.513Z,69.36
2019-03-24T21:35:51.515Z,68.99
2019-03-24T21:38:21.525Z,69.19
2019-03-24T21:40:51.614Z,68.85
2019-03-24T21:43:21.872Z,68.82
2019-03-24T21:45:51.943Z,68.95
2019-03-24T21:48:21.685Z,69.27
2019-03-24T21:50:51.754Z,69.15
2019-03-24T21:53:21.662Z,69.18
2019-03-24T21:55:51.377Z,69.32
2019-03-24T21:58:21.159Z,69.73
2019-03-24T22:00:50.804Z,69.98
2019-03-24T22:03:20.682Z,69.95
2019-03-24T22:05:50.366Z,70.01
2019-03-24T22:08:20.764Z,70.00
2019-03-24T22:10:50.369Z,70.19
2019-03-24T22:13:20.294Z,70.26
2019-03-24T22:15:50.110Z,70.06
2019-03-24T22:18:19.799Z,69.99
2019-03-24T22:20:49.864Z,70.29
2019-03-24T22:23:19.708Z,70.28
2019-03-24T22:25:49.599Z,70.54
2019-03-24T22:28:19.489Z,70.51
2019-03-24T22:30:49.240Z,70.48
2019-03-24T22:33:19.004Z,70.31
2019-03-24T22:35:48.644Z,70.67
2019-03-24T22:38:18.663Z,70.89
2019-03-24T22:40:48.308Z,70.92
2019-03-24T22:43:17.996Z,71.07
2019-03-24T22:45:47.832Z,71.18
2019-03-24T22:48:18.158Z,71.34
2019-03-24T22:50:48.239Z,71.29
2019-03-24T22:53:17.958Z,71.17
2019-03-24T22:55:47.708Z,71.49
2019-03-24T22:58:17.918Z,72.71
2019-03-24T23:00:51.444Z,70.07
2019-03-24T23:03:24.911Z,69.90
2019-03-24T23:05:54.412Z,69.89
2019-03-24T23:08:25.454Z,70.13
2019-03-24T23:10:55.338Z,70.41
2019-03-24T23:13:25.086Z,70.27
2019-03-24T23:15:54.876Z,70.31
2019-03-24T23:18:24.836Z,70.84
2019-03-24T23:20:54.677Z,71.14
2019-03-24T23:23:24.304Z,70.27
2019-03-24T23:25:54.108Z,70.64
2019-03-24T23:28:23.816Z,71.02
2019-03-24T23:30:53.516Z,70.28
2019-03-24T23:33:23.148Z,69.21
2019-03-24T23:35:53.026Z,68.29
2019-03-24T23:38:23.000Z,68.32
2019-03-24T23:40:52.978Z,68.28
2019-03-24T23:43:22.790Z,68.29
2019-03-24T23:45:52.609Z,67.94
2019-03-24T23:48:22.261Z,68.48
2019-03-24T23:50:52.106Z,65.17
2019-03-24T23:53:22.185Z,65.80
2019-03-24T23:55:52.068Z,65.90
2019-03-24T23:58:21.937Z,66.25
